Quenames — WTU9038 — position and weather

sailwx.info

Track history (hours):
 
Tides and Currents Weather Stations Pressure Air Temp Water Temp Dewpoint Dewpoint Depression Visibility Wind Speed Wind Dir Waves Ship Positions

Quenames

Owner: BOSTON MARINE TRANSPORT INC, EAST BOSTON, MA. More information available from US FCC via Universal Licensing System and Coast Guard Vessel Documentation Center.

Last reported at 2015-Aug-28 11:24 UTC. Time now 2015-Sep-03 17:18 UTC.
Position N 29°34' W 090°23'.

Length 23 m; draft 3 m.

Type: Tug. MMSI: 367022790.

Date/timePositionNaut miles runAvg speedWind from/ knotsBaromVisibWave heightAir tempDewpointWater temp
2015-Aug-28 11:24N 29°34' W 090°23'0 0.0
2015-Aug-28 09:08N 29°34' W 090°23'0 0.0
2015-Aug-28 08:24N 29°34' W 090°23'0 0.0
2015-Aug-28 07:30N 29°34' W 090°23'0 0.0
2015-Aug-26 06:28N 29°34' W 090°23'7 0.8
2015-Aug-25 20:33N 29°34' W 090°32'7 7.3
2015-Aug-25 19:34N 29°36' W 090°40'3 3.4
2015-Aug-25 18:33N 29°34' W 090°43'1 0.9
2015-Aug-25 17:33N 29°33' W 090°42'0 0.0
2015-Aug-25 16:34N 29°33' W 090°42'0 0.3
2015-Aug-25 15:34N 29°33' W 090°42'8 8.1
2015-Aug-25 14:33N 29°25' W 090°44'  
2015-Aug-22 09:26N 25°27' W 080°05'8 8.9
2015-Aug-22 08:33N 25°35' W 080°03'8 8.0
2015-Aug-22 07:33N 25°43' W 080°04'7 7.3
2015-Aug-22 06:33N 25°50' W 080°05'7 6.8
2015-Aug-22 05:33N 25°57' W 080°04'6 6.5
2015-Aug-22 04:33N 26°03' W 080°04'2 2.3
2015-Aug-22 03:33N 26°06' W 080°04'7 6.5
2015-Aug-22 02:33N 26°12' W 080°04'7 6.5
2015-Aug-22 01:33N 26°19' W 080°03'6 6.3
2015-Aug-22 00:33N 26°25' W 080°02'7 7.1
2015-Aug-21 23:31N 26°32' W 080°02'  
Track history (hours):
 
Tides and Currents Weather Stations Pressure Air Temp Water Temp Dewpoint Dewpoint Depression Visibility Wind Speed Wind Dir Waves Ship Positions

Quenames

Owner: BOSTON MARINE TRANSPORT INC, EAST BOSTON, MA. More information available from US FCC via Universal Licensing System and Coast Guard Vessel Documentation Center.

Last reported at 2015-Aug-28 11:24 UTC. Time now 2015-Sep-03 17:18 UTC.
Position N 29°34' W 090°23'.

Length 23 m; draft 3 m.

Type: Tug. MMSI: 367022790.

Date/timePositionNaut miles runAvg speedWind from/ knotsBaromVisibWave heightAir tempDewpointWater temp
2015-Aug-28 11:24N 29°34' W 090°23'0 0.0
2015-Aug-28 09:08N 29°34' W 090°23'0 0.0
2015-Aug-28 08:24N 29°34' W 090°23'0 0.0
2015-Aug-28 07:30N 29°34' W 090°23'0 0.0
2015-Aug-26 06:28N 29°34' W 090°23'7 0.8
2015-Aug-25 20:33N 29°34' W 090°32'7 7.3
2015-Aug-25 19:34N 29°36' W 090°40'3 3.4
2015-Aug-25 18:33N 29°34' W 090°43'1 0.9
2015-Aug-25 17:33N 29°33' W 090°42'0 0.0
2015-Aug-25 16:34N 29°33' W 090°42'0 0.3
2015-Aug-25 15:34N 29°33' W 090°42'8 8.1
2015-Aug-25 14:33N 29°25' W 090°44'  
2015-Aug-22 09:26N 25°27' W 080°05'8 8.9
2015-Aug-22 08:33N 25°35' W 080°03'8 8.0
2015-Aug-22 07:33N 25°43' W 080°04'7 7.3
2015-Aug-22 06:33N 25°50' W 080°05'7 6.8
2015-Aug-22 05:33N 25°57' W 080°04'6 6.5
2015-Aug-22 04:33N 26°03' W 080°04'2 2.3
2015-Aug-22 03:33N 26°06' W 080°04'7 6.5
2015-Aug-22 02:33N 26°12' W 080°04'7 6.5
2015-Aug-22 01:33N 26°19' W 080°03'6 6.3
2015-Aug-22 00:33N 26°25' W 080°02'7 7.1
2015-Aug-21 23:31N 26°32' W 080°02'  

Dump ship's entire track history